Time;durP1;ratioP1;P1;durP2;ratioP2;P2;SDS_P1;SDS_P2;PMS_P1;PMS_P2;Temp;Humidity;BMP_temperature;BMP_pressure;BME280_temperature;BME280_humidity;BME280_pressure;Samples;Min_cycle;Max_cycle;Signal;HPM_P1;HPM_P2
2022/11/07 00:01:47;;;;;;;8.50;4.90;;;9.70;89.50;;;;;;5007891;28;20082;-43
2022/11/07 00:04:15;;;;;;;7.40;5.72;;;9.80;89.60;;;;;;5012090;28;20053;-45
2022/11/07 00:06:45;;;;;;;8.75;4.97;;;9.80;89.50;;;;;;5014540;28;20032;-43
2022/11/07 00:09:11;;;;;;;8.25;5.65;;;9.90;89.50;;;;;;5012459;28;20069;-43
2022/11/07 00:11:42;;;;;;;8.88;5.05;;;9.90;89.50;;;;;;5004251;28;20050;-43
2022/11/07 00:14:17;;;;;;;9.45;5.85;;;9.90;89.50;;;;;;5006799;28;20459;-44
2022/11/07 00:16:46;;;;;;;8.68;5.20;;;9.90;89.40;;;;;;4978391;28;20058;-44
2022/11/07 00:19:15;;;;;;;8.02;5.40;;;9.90;89.40;;;;;;5004087;28;20037;-45
2022/11/07 00:21:41;;;;;;;8.32;5.78;;;10.00;89.50;;;;;;5012534;28;20121;-43
2022/11/07 00:24:09;;;;;;;8.20;4.93;;;9.90;89.60;;;;;;5012991;28;20038;-43
2022/11/07 00:26:35;;;;;;;11.55;6.32;;;10.00;89.50;;;;;;5014500;28;20121;-45
2022/11/07 00:29:02;;;;;;;9.93;7.07;;;10.10;89.40;;;;;;5008712;28;20515;-45
2022/11/07 00:31:29;;;;;;;8.68;5.47;;;10.10;89.30;;;;;;5013352;28;20033;-43
2022/11/07 00:33:57;;;;;;;8.98;4.70;;;10.10;89.50;;;;;;5011981;28;20120;-44
2022/11/07 00:36:29;;;;;;;11.60;5.55;;;10.20;89.50;;;;;;5013394;28;20030;-44
2022/11/07 00:38:56;;;;;;;10.48;5.53;;;10.10;89.40;;;;;;4992946;28;20088;-47
2022/11/07 00:41:24;;;;;;;9.20;5.38;;;10.10;89.50;;;;;;4971768;28;20026;-47
2022/11/07 00:43:51;;;;;;;9.15;5.78;;;10.20;89.50;;;;;;5003478;28;20050;-43
2022/11/07 00:46:22;;;;;;;8.13;5.13;;;10.20;89.50;;;;;;5014135;28;20042;-43
2022/11/07 00:48:49;;;;;;;6.90;5.25;;;10.20;89.50;;;;;;5006036;28;20034;-46
2022/11/07 00:51:24;;;;;;;10.65;5.32;;;10.20;89.50;;;;;;5012521;28;20076;-43
2022/11/07 00:53:52;;;;;;;8.20;5.40;;;10.30;89.40;;;;;;5013387;28;20399;-44
2022/11/07 00:56:32;;;;;;;9.30;4.97;;;10.30;89.40;;;;;;4998258;28;20019;-44
2022/11/07 00:58:59;;;;;;;9.00;4.70;;;10.30;89.30;;;;;;5009660;28;20053;-44
2022/11/07 01:01:31;;;;;;;8.55;5.55;;;10.40;89.30;;;;;;5009715;28;20109;-44
2022/11/07 01:06:55;;;;;;;12.40;5.32;;;10.30;89.30;;;;;;5010957;28;20034;-45
2022/11/07 01:09:22;;;;;;;9.75;5.22;;;10.30;89.40;;;;;;5003584;28;20406;-44
2022/11/07 01:11:49;;;;;;;7.13;5.25;;;10.30;89.30;;;;;;5011158;28;20464;-43
2022/11/07 01:14:18;;;;;;;10.57;5.15;;;10.30;89.30;;;;;;5010151;28;20026;-45
2022/11/07 01:16:49;;;;;;;6.90;4.90;;;10.40;89.30;;;;;;4995288;28;20069;-45
2022/11/07 01:19:17;;;;;;;6.88;5.05;;;10.40;89.40;;;;;;5004684;28;20444;-45
2022/11/07 01:21:44;;;;;;;10.57;5.07;;;10.40;89.50;;;;;;5012422;28;20056;-45
2022/11/07 01:24:12;;;;;;;9.30;5.22;;;10.40;89.60;;;;;;5012156;28;20034;-44
2022/11/07 01:26:41;;;;;;;9.80;4.85;;;10.40;89.50;;;;;;5008815;28;20033;-45
2022/11/07 01:29:09;;;;;;;8.38;4.78;;;10.40;89.50;;;;;;5010780;28;20037;-45
2022/11/07 01:31:41;;;;;;;7.03;4.50;;;10.40;89.50;;;;;;5013437;28;20109;-45
2022/11/07 01:34:07;;;;;;;9.05;5.97;;;10.50;89.50;;;;;;5004628;28;20061;-46
2022/11/07 01:36:35;;;;;;;8.35;5.30;;;10.50;89.40;;;;;;5011508;28;20030;-44
2022/11/07 01:39:04;;;;;;;10.02;6.22;;;10.60;89.30;;;;;;5006917;28;20033;-44
2022/11/07 01:41:33;;;;;;;7.47;4.78;;;10.60;89.40;;;;;;4995203;28;20036;-45
2022/11/07 01:44:07;;;;;;;8.88;4.90;;;10.60;89.40;;;;;;5011154;28;20069;-44
2022/11/07 01:46:54;;;;;;;12.68;4.78;;;10.60;89.20;;;;;;4998364;28;20097;-44
2022/11/07 01:49:28;;;;;;;10.00;4.97;;;10.60;89.10;;;;;;5011132;28;20033;-45
2022/11/07 01:52:15;;;;;;;9.70;5.10;;;10.60;89.10;;;;;;5013091;28;20058;-44
2022/11/07 01:55:05;;;;;;;9.75;5.05;;;10.70;88.80;;;;;;5002826;28;20038;-44
2022/11/07 01:57:39;;;;;;;10.85;4.18;;;10.70;88.80;;;;;;5012212;28;20705;-45
2022/11/07 02:00:11;;;;;;;12.10;4.65;;;10.70;88.80;;;;;;5009632;28;20034;-44
2022/11/07 02:02:37;;;;;;;6.55;4.60;;;10.70;88.80;;;;;;4994683;28;20034;-45
2022/11/07 02:05:06;;;;;;;9.32;4.53;;;10.80;88.80;;;;;;5006081;28;20112;-44
2022/11/07 02:07:34;;;;;;;8.23;4.50;;;10.80;88.70;;;;;;5011847;28;20049;-46
2022/11/07 02:10:05;;;;;;;9.98;4.68;;;10.90;88.50;;;;;;5010670;28;20041;-45
2022/11/07 02:12:32;;;;;;;9.73;4.22;;;10.90;88.40;;;;;;5007718;28;20089;-45
2022/11/07 02:15:01;;;;;;;9.20;3.65;;;10.90;88.40;;;;;;5008807;28;20025;-45
2022/11/07 02:17:27;;;;;;;8.57;3.88;;;10.90;88.30;;;;;;5011367;28;20144;-45
2022/11/07 02:19:55;;;;;;;12.00;4.63;;;10.90;88.20;;;;;;5011610;28;20097;-46
2022/11/07 02:22:47;;;;;;;7.32;4.20;;;10.90;88.30;;;;;;4997985;28;20444;-44
2022/11/07 02:25:20;;;;;;;10.23;4.15;;;10.90;88.50;;;;;;5007558;28;20034;-44
2022/11/07 02:27:58;;;;;;;9.65;4.50;;;10.90;88.50;;;;;;4993823;28;20033;-45
2022/11/07 02:30:39;;;;;;;11.82;3.92;;;10.90;88.50;;;;;;5010723;28;20105;-44
2022/11/07 02:33:22;;;;;;;7.47;3.55;;;10.90;88.50;;;;;;5015454;28;20025;-44
2022/11/07 02:36:01;;;;;;;8.93;3.90;;;10.90;88.60;;;;;;5005459;28;20026;-43
2022/11/07 02:38:47;;;;;;;9.27;3.80;;;10.90;88.60;;;;;;5015501;28;20105;-45
2022/11/07 02:41:19;;;;;;;16.08;4.30;;;10.90;88.60;;;;;;4996266;28;20029;-45
2022/11/07 02:43:50;;;;;;;12.70;4.72;;;10.90;88.40;;;;;;5011989;28;20044;-46
2022/11/07 02:46:17;;;;;;;7.63;4.22;;;10.90;88.40;;;;;;5013553;28;20422;-45
2022/11/07 02:48:46;;;;;;;10.75;4.47;;;10.90;88.50;;;;;;5015865;28;20033;-45
2022/11/07 02:51:13;;;;;;;10.52;4.47;;;10.80;88.70;;;;;;5004916;28;20025;-47
2022/11/07 02:53:41;;;;;;;11.52;4.10;;;10.90;88.80;;;;;;5014895;28;20107;-45
2022/11/07 02:56:07;;;;;;;10.05;4.00;;;10.80;88.80;;;;;;5011176;28;20034;-47
2022/11/07 02:58:37;;;;;;;9.75;3.58;;;10.90;88.80;;;;;;5013780;28;20355;-45
2022/11/07 03:01:08;;;;;;;7.78;3.88;;;10.90;88.80;;;;;;5011484;28;20036;-44
2022/11/07 03:03:35;;;;;;;11.48;4.65;;;10.90;88.70;;;;;;4996290;28;20054;-45
2022/11/07 03:06:04;;;;;;;7.03;4.07;;;10.90;88.60;;;;;;5015230;28;20498;-45
2022/11/07 03:08:31;;;;;;;11.10;4.45;;;10.90;88.60;;;;;;4993269;28;20054;-45
2022/11/07 03:11:00;;;;;;;10.38;3.97;;;11.00;88.60;;;;;;5011542;28;20045;-45
2022/11/07 03:13:26;;;;;;;18.35;5.07;;;11.00;88.30;;;;;;4998311;28;20033;-44
2022/11/07 03:15:54;;;;;;;6.82;3.92;;;11.00;88.20;;;;;;5013841;28;20153;-44
2022/11/07 03:18:22;;;;;;;11.73;4.03;;;11.00;88.10;;;;;;5015480;28;20064;-47
2022/11/07 03:20:51;;;;;;;8.40;3.55;;;11.10;88.10;;;;;;4976747;28;20026;-47
2022/11/07 03:23:19;;;;;;;12.30;4.18;;;11.10;88.10;;;;;;5001409;28;20112;-46
2022/11/07 03:25:46;;;;;;;7.35;3.50;;;11.10;88.00;;;;;;5012910;28;20491;-45
2022/11/07 03:28:13;;;;;;;8.20;3.30;;;11.10;88.20;;;;;;5013586;28;20034;-44
2022/11/07 03:30:38;;;;;;;12.75;4.05;;;11.10;88.10;;;;;;5011066;28;20033;-45
2022/11/07 03:33:07;;;;;;;11.88;3.70;;;11.20;87.90;;;;;;5012782;28;20042;-43
2022/11/07 03:35:37;;;;;;;14.52;4.22;;;11.20;87.80;;;;;;5003806;28;20054;-45
2022/11/07 03:38:03;;;;;;;9.98;4.10;;;11.20;87.70;;;;;;5011625;28;20074;-46
2022/11/07 03:40:31;;;;;;;7.70;3.63;;;11.20;87.60;;;;;;5001589;28;20045;-45
2022/11/07 03:42:58;;;;;;;13.40;3.58;;;11.20;87.50;;;;;;5012020;28;20037;-48
2022/11/07 03:45:23;;;;;;;7.15;3.83;;;11.10;87.70;;;;;;4993373;28;20085;-45
2022/11/07 03:47:50;;;;;;;8.40;3.90;;;11.20;87.80;;;;;;5006187;28;20038;-44
2022/11/07 03:50:19;;;;;;;6.72;3.40;;;11.10;87.80;;;;;;5013043;28;20042;-45
2022/11/07 03:52:47;;;;;;;8.07;3.50;;;11.10;87.80;;;;;;5010322;28;20034;-44
2022/11/07 03:55:17;;;;;;;7.90;3.55;;;11.10;87.90;;;;;;5012782;28;20091;-45
2022/11/07 03:57:45;;;;;;;7.05;3.88;;;11.10;87.90;;;;;;5013110;28;20064;-46
2022/11/07 04:00:12;;;;;;;7.38;3.38;;;11.10;88.00;;;;;;5013191;28;20099;-45
2022/11/07 04:02:40;;;;;;;11.13;3.75;;;11.00;88.00;;;;;;4996112;28;20042;-44
2022/11/07 04:05:06;;;;;;;12.32;3.67;;;11.00;88.00;;;;;;5007770;28;20375;-44
2022/11/07 04:07:33;;;;;;;14.45;4.47;;;11.00;88.20;;;;;;5014449;28;20042;-45
2022/11/07 04:10:03;;;;;;;9.93;2.88;;;10.90;88.30;;;;;;5013088;28;20129;-46
2022/11/07 04:18:02;;;;;;;13.13;3.88;;;10.90;88.50;;;;;;5013489;28;20072;-47
2022/11/07 04:20:31;;;;;;;9.20;4.15;;;10.90;88.40;;;;;;5012673;28;20030;-45
2022/11/07 04:22:56;;;;;;;9.45;4.00;;;10.90;88.60;;;;;;5011795;28;20022;-47
2022/11/07 04:27:41;;;;;;;6.35;3.50;;;10.80;88.70;;;;;;5013742;28;20032;-45
2022/11/07 04:28:10;;;;;;;7.93;3.15;;;10.80;88.90;;;;;;5002539;28;20073;-45
2022/11/07 04:30:37;;;;;;;9.63;3.90;;;10.70;89.00;;;;;;5012670;28;20026;-46
2022/11/07 04:33:03;;;;;;;7.22;3.38;;;10.70;89.20;;;;;;5012030;28;20042;-46
2022/11/07 04:35:33;;;;;;;10.57;3.45;;;10.70;89.20;;;;;;5011036;28;20029;-45
2022/11/07 04:38:01;;;;;;;8.55;3.33;;;10.70;89.30;;;;;;5013584;28;20033;-45
2022/11/07 04:40:29;;;;;;;10.95;3.72;;;10.80;89.40;;;;;;5014138;28;20010;-45
2022/11/07 04:42:55;;;;;;;7.97;4.65;;;10.90;89.20;;;;;;5009640;28;20129;-50
2022/11/07 04:45:21;;;;;;;12.32;4.22;;;10.90;89.60;;;;;;5010822;28;20104;-46
2022/11/07 04:47:49;;;;;;;12.85;4.72;;;10.90;90.10;;;;;;5010354;28;20060;-48
2022/11/07 04:50:18;;;;;;;10.90;4.45;;;10.90;90.30;;;;;;5013810;28;20026;-47
2022/11/07 04:52:46;;;;;;;10.95;5.13;;;10.90;90.60;;;;;;4998061;28;20053;-51
2022/11/07 04:55:24;;;;;;;11.82;4.47;;;10.90;90.90;;;;;;5010282;28;20045;-54
2022/11/07 04:57:54;;;;;;;12.23;4.70;;;10.90;90.90;;;;;;5012653;28;20037;-55
2022/11/07 05:00:22;;;;;;;11.02;5.00;;;10.90;91.10;;;;;;5010566;28;20552;-55
2022/11/07 05:02:52;;;;;;;10.25;5.20;;;10.80;91.30;;;;;;5011227;28;20066;-59
2022/11/07 05:05:19;;;;;;;13.02;4.80;;;10.80;91.50;;;;;;5010717;28;20498;-50
2022/11/07 05:07:49;;;;;;;12.32;4.88;;;10.70;91.70;;;;;;5012342;28;20038;-54
2022/11/07 05:10:28;;;;;;;10.05;5.53;;;10.70;91.90;;;;;;5010669;28;20034;-54
2022/11/07 05:12:57;;;;;;;12.25;5.43;;;10.70;91.90;;;;;;5010740;28;20045;-50
2022/11/07 05:15:24;;;;;;;15.73;6.53;;;10.70;91.90;;;;;;5012165;28;20033;-49
2022/11/07 05:17:50;;;;;;;15.57;5.65;;;10.70;91.80;;;;;;5007881;28;20348;-48
2022/11/07 05:20:35;;;;;;;13.48;5.47;;;10.60;91.90;;;;;;5012264;28;20412;-48
2022/11/07 05:26:01;;;;;;;12.30;5.35;;;10.50;92.00;;;;;;4971004;28;20113;-49
2022/11/07 05:28:30;;;;;;;12.65;5.70;;;10.50;92.00;;;;;;5013053;28;20030;-47
2022/11/07 05:31:03;;;;;;;11.63;5.43;;;10.40;92.10;;;;;;4986816;28;20058;-50
2022/11/07 05:33:36;;;;;;;12.75;5.72;;;10.40;92.10;;;;;;4993574;28;20049;-47
2022/11/07 05:36:18;;;;;;;14.07;5.35;;;10.40;92.30;;;;;;5007105;28;20451;-47
2022/11/07 05:38:48;;;;;;;12.90;5.40;;;10.40;92.20;;;;;;5002597;28;20050;-49
2022/11/07 05:41:17;;;;;;;10.73;5.03;;;10.40;92.10;;;;;;5008930;28;20033;-48
2022/11/07 05:43:47;;;;;;;13.93;4.97;;;10.40;92.10;;;;;;5009871;28;20050;-51
2022/11/07 05:46:13;;;;;;;14.93;5.15;;;10.40;92.00;;;;;;5008747;28;20038;-47
2022/11/07 05:48:42;;;;;;;12.02;6.45;;;10.40;92.20;;;;;;5010421;28;20447;-48
2022/11/07 05:51:10;;;;;;;11.10;5.93;;;10.40;92.10;;;;;;5010263;28;20033;-49
2022/11/07 05:53:37;;;;;;;9.40;4.78;;;10.40;91.90;;;;;;5010393;28;20030;-47
2022/11/07 05:56:05;;;;;;;17.92;6.32;;;10.40;91.90;;;;;;5007250;28;20053;-50
2022/11/07 05:58:31;;;;;;;15.13;5.13;;;10.40;91.80;;;;;;5010705;28;20391;-47
2022/11/07 06:01:06;;;;;;;8.48;4.80;;;10.40;91.90;;;;;;5010644;28;20037;-48
2022/11/07 06:03:34;;;;;;;12.38;5.97;;;10.40;91.90;;;;;;5004251;28;20038;-49
2022/11/07 06:06:00;;;;;;;11.88;4.90;;;10.40;91.90;;;;;;5005470;28;20102;-47
2022/11/07 06:08:29;;;;;;;10.40;5.05;;;10.40;91.90;;;;;;5008944;28;20455;-48
2022/11/07 06:10:57;;;;;;;11.27;5.03;;;10.40;91.80;;;;;;5009063;28;20041;-47
2022/11/07 06:13:26;;;;;;;14.20;5.45;;;10.40;91.70;;;;;;5008706;28;20033;-47
2022/11/07 06:15:52;;;;;;;10.37;4.50;;;10.40;91.80;;;;;;5008742;28;20152;-47
2022/11/07 06:18:20;;;;;;;11.80;5.18;;;10.40;91.80;;;;;;5011243;28;20392;-49
2022/11/07 06:20:51;;;;;;;12.20;5.10;;;10.30;91.80;;;;;;5010804;28;20100;-47
2022/11/07 06:23:20;;;;;;;13.07;4.97;;;10.40;91.80;;;;;;5008172;28;20018;-50
2022/11/07 06:25:53;;;;;;;9.98;5.55;;;10.40;91.80;;;;;;5009161;28;20045;-47
2022/11/07 06:28:20;;;;;;;15.68;5.05;;;10.40;91.80;;;;;;5010200;28;20088;-50
2022/11/07 06:30:47;;;;;;;12.95;5.03;;;10.40;91.70;;;;;;5010046;28;20105;-47
2022/11/07 06:33:17;;;;;;;11.38;4.70;;;10.40;91.70;;;;;;5011298;28;20544;-50
2022/11/07 06:35:43;;;;;;;14.10;4.93;;;10.40;91.70;;;;;;5004866;28;20034;-51
2022/11/07 06:38:15;;;;;;;9.75;3.90;;;10.50;91.80;;;;;;5009943;28;20129;-48
2022/11/07 06:40:43;;;;;;;13.77;5.65;;;10.50;91.80;;;;;;5010113;28;20045;-52
2022/11/07 06:43:16;;;;;;;12.07;5.35;;;10.40;91.80;;;;;;5010201;28;20036;-48
2022/11/07 06:45:43;;;;;;;13.63;5.18;;;10.50;91.80;;;;;;5011393;28;20038;-52
2022/11/07 06:48:09;;;;;;;8.07;4.25;;;10.50;91.80;;;;;;5008073;28;20037;-49
2022/11/07 06:50:36;;;;;;;13.57;5.20;;;10.50;91.70;;;;;;4978468;28;20026;-48
2022/11/07 06:53:09;;;;;;;11.13;4.75;;;10.50;91.70;;;;;;5009999;28;20769;-48
2022/11/07 06:55:36;;;;;;;14.00;5.40;;;10.50;91.70;;;;;;4964723;28;20030;-47
2022/11/07 06:58:04;;;;;;;12.48;5.55;;;10.50;91.60;;;;;;5009699;28;20038;-48
2022/11/07 07:00:36;;;;;;;11.18;4.90;;;10.40;91.60;;;;;;5009134;28;20446;-48
2022/11/07 07:03:05;;;;;;;13.05;5.40;;;10.50;91.70;;;;;;5011152;28;20044;-47
2022/11/07 07:05:35;;;;;;;18.05;6.25;;;10.50;91.60;;;;;;5024487;28;20037;-47
2022/11/07 07:08:02;;;;;;;11.07;5.63;;;10.50;91.50;;;;;;5002410;28;20030;-47
2022/11/07 07:10:28;;;;;;;10.15;4.95;;;10.50;91.50;;;;;;4991530;28;20035;-49
2022/11/07 07:12:55;;;;;;;23.20;7.47;;;10.50;91.40;;;;;;4995908;28;20097;-48
2022/11/07 07:15:21;;;;;;;14.55;5.43;;;10.50;91.50;;;;;;4991609;28;20097;-49
2022/11/07 07:17:49;;;;;;;10.85;6.13;;;10.60;91.50;;;;;;5010434;28;20049;-48
2022/11/07 07:20:15;;;;;;;13.23;5.25;;;10.60;91.40;;;;;;5009006;28;20054;-47
2022/11/07 07:22:42;;;;;;;12.68;6.03;;;10.70;91.30;;;;;;5004473;28;20119;-46
2022/11/07 07:25:10;;;;;;;15.13;5.63;;;10.70;91.00;;;;;;5009742;28;20034;-49
2022/11/07 07:27:37;;;;;;;15.35;5.30;;;10.70;91.00;;;;;;5009707;28;20030;-47
2022/11/07 07:30:02;;;;;;;16.30;5.10;;;10.70;91.20;;;;;;5013903;28;20049;-47
2022/11/07 07:32:28;;;;;;;12.00;4.93;;;10.70;91.10;;;;;;5005882;28;20034;-48
2022/11/07 07:34:55;;;;;;;11.15;4.88;;;10.90;90.90;;;;;;5011500;28;20080;-47
2022/11/07 07:37:22;;;;;;;10.48;5.20;;;10.80;90.60;;;;;;5014628;28;20105;-46
2022/11/07 07:39:51;;;;;;;13.23;5.25;;;10.90;90.60;;;;;;5013875;28;20022;-47
2022/11/07 07:42:20;;;;;;;10.80;5.30;;;10.90;90.70;;;;;;5014065;28;20044;-47
2022/11/07 07:44:47;;;;;;;17.25;6.18;;;10.90;90.60;;;;;;5005748;28;20034;-48
2022/11/07 07:47:14;;;;;;;12.07;4.80;;;10.80;90.60;;;;;;5012620;28;20026;-48
2022/11/07 07:49:42;;;;;;;14.30;4.90;;;10.90;90.60;;;;;;5003732;28;20046;-48
2022/11/07 07:52:14;;;;;;;11.23;5.18;;;10.90;90.50;;;;;;5008117;28;20025;-49
2022/11/07 07:54:42;;;;;;;9.80;5.70;;;10.90;90.60;;;;;;5012622;28;20030;-46
2022/11/07 07:57:10;;;;;;;12.57;5.15;;;11.00;90.60;;;;;;5014332;28;20026;-46
2022/11/07 07:59:38;;;;;;;11.95;5.85;;;11.10;90.40;;;;;;5005082;28;20080;-46
2022/11/07 08:02:03;;;;;;;12.52;4.57;;;11.10;90.20;;;;;;5011624;28;20131;-47
2022/11/07 08:04:30;;;;;;;8.95;4.70;;;11.10;90.00;;;;;;5009530;28;20061;-47
2022/11/07 08:06:57;;;;;;;7.20;3.40;;;11.20;89.90;;;;;;5011924;28;20096;-46
2022/11/07 08:09:24;;;;;;;10.50;3.45;;;11.20;89.50;;;;;;5008370;28;20451;-48
2022/11/07 08:11:49;;;;;;;10.20;4.10;;;11.20;89.40;;;;;;5007976;28;20030;-46
2022/11/07 08:14:17;;;;;;;8.98;4.30;;;11.30;89.40;;;;;;5012855;28;20045;-46
2022/11/07 08:16:45;;;;;;;9.35;4.18;;;11.40;89.10;;;;;;5009266;28;20038;-50
2022/11/07 08:19:12;;;;;;;9.32;3.38;;;11.40;89.20;;;;;;5006778;28;20038;-46
2022/11/07 08:21:39;;;;;;;12.50;4.25;;;11.40;89.40;;;;;;5007261;28;20139;-46
2022/11/07 08:24:07;;;;;;;8.52;4.10;;;11.40;89.10;;;;;;5010905;28;20033;-46
2022/11/07 08:26:36;;;;;;;10.45;3.67;;;11.50;89.20;;;;;;5012261;28;20030;-45
2022/11/07 08:29:01;;;;;;;9.05;4.00;;;11.50;89.10;;;;;;5012627;28;20041;-46
2022/11/07 08:31:28;;;;;;;12.38;4.60;;;11.50;89.10;;;;;;5013221;28;20037;-45
2022/11/07 08:33:59;;;;;;;15.38;5.20;;;11.50;88.90;;;;;;4997832;28;20030;-46
2022/11/07 08:36:27;;;;;;;10.10;4.38;;;11.50;88.90;;;;;;5009138;28;20030;-45
2022/11/07 08:38:55;;;;;;;11.60;3.90;;;11.50;88.90;;;;;;4995941;28;20049;-45
2022/11/07 08:41:21;;;;;;;16.17;4.38;;;11.50;89.00;;;;;;5013151;28;20026;-45
2022/11/07 08:43:48;;;;;;;15.27;4.78;;;11.50;89.00;;;;;;5007002;28;20034;-48
2022/11/07 08:46:14;;;;;;;9.32;4.57;;;11.50;89.00;;;;;;5009897;28;20037;-45
2022/11/07 08:48:40;;;;;;;11.43;4.75;;;11.60;89.10;;;;;;5010609;28;20038;-44
2022/11/07 08:51:08;;;;;;;9.77;4.97;;;11.60;89.10;;;;;;5012030;28;20026;-45
2022/11/07 08:53:33;;;;;;;10.85;3.90;;;11.70;89.00;;;;;;5012122;28;20072;-44
2022/11/07 08:56:09;;;;;;;13.75;4.45;;;11.80;88.70;;;;;;5011389;28;20022;-44
2022/11/07 08:58:36;;;;;;;13.88;4.32;;;11.80;88.80;;;;;;5009558;28;20064;-45
2022/11/07 09:01:07;;;;;;;8.27;4.00;;;11.80;89.00;;;;;;5012930;28;20124;-45
2022/11/07 09:03:37;;;;;;;11.07;3.80;;;11.90;88.80;;;;;;5010320;28;20096;-46
2022/11/07 09:06:04;;;;;;;11.20;4.75;;;11.90;88.90;;;;;;4995177;28;20029;-45
2022/11/07 09:08:32;;;;;;;12.00;4.85;;;11.90;88.90;;;;;;5013058;28;20038;-45
2022/11/07 09:11:05;;;;;;;8.38;4.35;;;11.90;89.00;;;;;;5007768;28;20037;-44
2022/11/07 09:13:33;;;;;;;12.23;5.40;;;11.90;89.20;;;;;;5000974;28;20395;-43
2022/11/07 09:16:02;;;;;;;9.88;4.57;;;11.90;89.10;;;;;;5005584;28;20436;-46
2022/11/07 09:18:33;;;;;;;15.35;5.30;;;12.00;89.10;;;;;;5007524;28;20128;-44
2022/11/07 09:21:01;;;;;;;10.13;5.05;;;12.10;89.10;;;;;;5008074;28;20088;-44
2022/11/07 09:23:30;;;;;;;16.38;5.97;;;12.00;89.00;;;;;;5007648;28;20366;-44
2022/11/07 09:26:02;;;;;;;14.80;5.25;;;12.10;88.70;;;;;;5011907;28;20038;-44
2022/11/07 09:28:29;;;;;;;11.27;5.70;;;12.10;88.80;;;;;;5007683;28;20061;-46
2022/11/07 09:30:58;;;;;;;10.23;4.95;;;12.10;89.00;;;;;;5012234;28;20034;-47
2022/11/07 09:33:25;;;;;;;10.95;5.57;;;12.00;89.00;;;;;;4994168;28;20555;-45
2022/11/07 09:35:57;;;;;;;11.77;5.03;;;11.90;89.10;;;;;;5010703;28;20137;-44
2022/11/07 09:38:25;;;;;;;15.65;6.15;;;12.00;89.20;;;;;;4995043;28;20029;-46
2022/11/07 09:41:16;;;;;;;11.55;4.70;;;12.10;89.30;;;;;;5005361;28;20258;-44
2022/11/07 09:44:19;;;;;;;12.50;5.35;;;12.10;88.90;;;;;;4999126;28;20029;-47
2022/11/07 09:47:19;;;;;;;10.57;4.95;;;12.20;89.00;;;;;;5012155;28;20677;-45
2022/11/07 09:50:05;;;;;;;11.20;4.78;;;12.30;88.60;;;;;;5002790;28;20049;-46
2022/11/07 09:53:11;;;;;;;11.82;4.97;;;12.30;88.80;;;;;;5009113;28;20080;-46
2022/11/07 09:55:45;;;;;;;10.68;4.95;;;12.30;88.70;;;;;;5009634;28;20026;-44
2022/11/07 09:58:39;;;;;;;13.07;5.10;;;12.40;88.60;;;;;;4995531;28;20762;-47
2022/11/07 10:01:09;;;;;;;10.55;4.75;;;12.40;88.60;;;;;;5001748;28;20100;-45
2022/11/07 10:03:37;;;;;;;8.98;4.55;;;12.40;88.40;;;;;;4992463;28;20144;-47
2022/11/07 10:06:21;;;;;;;17.30;6.28;;;12.40;88.30;;;;;;4994573;28;20034;-47
2022/11/07 10:09:17;;;;;;;13.00;5.22;;;12.40;88.40;;;;;;5012026;28;20081;-46
2022/11/07 10:12:09;;;;;;;12.18;5.28;;;12.40;88.40;;;;;;5002480;28;20124;-47
2022/11/07 10:15:08;;;;;;;10.10;4.45;;;12.40;88.50;;;;;;5011165;28;20030;-46
2022/11/07 10:17:55;;;;;;;11.93;4.43;;;12.40;88.40;;;;;;5009488;28;20129;-47
2022/11/07 10:21:04;;;;;;;11.52;4.68;;;12.40;88.50;;;;;;4983388;28;20042;-46
2022/11/07 10:23:58;;;;;;;10.57;4.90;;;12.40;88.70;;;;;;5012257;28;20084;-47
2022/11/07 10:26:27;;;;;;;13.25;5.00;;;12.40;88.90;;;;;;4999273;28;20050;-45
2022/11/07 10:29:00;;;;;;;13.17;5.70;;;12.40;89.00;;;;;;4989700;28;20042;-47
2022/11/07 10:31:34;;;;;;;11.45;5.32;;;12.40;89.20;;;;;;5008435;28;20030;-47
2022/11/07 10:34:27;;;;;;;12.57;4.40;;;12.40;89.30;;;;;;4990679;28;20042;-45
2022/11/07 10:36:55;;;;;;;12.32;4.55;;;12.40;89.50;;;;;;5007255;28;20030;-46
2022/11/07 10:39:21;;;;;;;17.13;4.90;;;12.50;89.50;;;;;;5011019;28;20071;-48
2022/11/07 10:42:18;;;;;;;11.05;4.93;;;12.50;89.20;;;;;;5009561;28;20393;-46
2022/11/07 10:44:46;;;;;;;13.25;4.43;;;12.50;89.20;;;;;;5010242;28;20048;-45
2022/11/07 10:47:24;;;;;;;13.90;5.00;;;12.70;88.70;;;;;;5010999;28;20030;-46
2022/11/07 10:49:59;;;;;;;15.85;4.97;;;12.70;88.60;;;;;;5004566;28;20030;-45
2022/11/07 10:52:28;;;;;;;15.98;5.75;;;12.70;88.40;;;;;;4994104;28;20042;-46
2022/11/07 10:55:17;;;;;;;10.95;4.60;;;12.80;88.40;;;;;;5013583;28;20022;-45
2022/11/07 10:57:47;;;;;;;10.68;4.57;;;12.90;88.20;;;;;;5008479;28;20030;-45
2022/11/07 11:00:32;;;;;;;12.63;4.60;;;12.90;87.90;;;;;;4996400;28;20061;-48
2022/11/07 11:03:01;;;;;;;11.80;3.83;;;12.90;87.70;;;;;;5012998;28;20455;-46
2022/11/07 11:05:42;;;;;;;8.75;4.22;;;13.00;87.30;;;;;;5013853;28;20499;-48
2022/11/07 11:08:15;;;;;;;12.15;4.95;;;13.10;86.90;;;;;;5014333;28;20628;-47
2022/11/07 11:10:44;;;;;;;12.23;4.95;;;13.20;86.80;;;;;;5011663;28;20050;-45
2022/11/07 11:13:31;;;;;;;9.45;3.63;;;13.20;86.80;;;;;;5011665;28;20156;-46
2022/11/07 11:16:00;;;;;;;11.98;3.95;;;13.30;86.70;;;;;;5014382;28;20041;-46
2022/11/07 11:18:26;;;;;;;14.48;4.18;;;13.40;86.50;;;;;;5011529;28;20045;-47
2022/11/07 11:21:15;;;;;;;15.15;4.28;;;13.50;85.90;;;;;;5013998;28;20540;-46
2022/11/07 11:23:46;;;;;;;10.15;3.90;;;13.50;85.80;;;;;;5014035;28;20396;-46
2022/11/07 11:26:34;;;;;;;11.48;3.42;;;13.50;85.40;;;;;;5013318;28;20034;-47
2022/11/07 11:29:15;;;;;;;10.52;4.07;;;13.40;85.20;;;;;;5011050;28;20042;-46
2022/11/07 11:31:51;;;;;;;13.75;4.78;;;13.40;86.00;;;;;;5005053;28;20363;-46
2022/11/07 11:35:00;;;;;;;11.30;3.45;;;13.30;86.40;;;;;;5022327;28;20132;-46
2022/11/07 11:37:35;;;;;;;9.65;3.45;;;13.30;86.10;;;;;;5008434;28;20038;-46
2022/11/07 11:40:21;;;;;;;13.30;3.50;;;13.20;86.50;;;;;;5013376;28;20037;-46
2022/11/07 11:42:57;;;;;;;13.48;3.75;;;13.40;87.00;;;;;;5005963;28;20367;-46
2022/11/07 11:46:01;;;;;;;19.30;4.75;;;13.40;86.10;;;;;;5010653;28;20022;-46
2022/11/07 11:48:38;;;;;;;9.18;3.40;;;13.50;85.60;;;;;;5006158;28;20053;-47
2022/11/07 11:51:18;;;;;;;10.07;3.78;;;13.50;85.50;;;;;;5010121;28;20045;-46
2022/11/07 11:53:45;;;;;;;9.98;2.95;;;13.40;85.60;;;;;;4998251;28;20026;-50
2022/11/07 11:56:41;;;;;;;10.20;3.45;;;13.40;85.70;;;;;;5014078;28;20034;-46
2022/11/07 11:59:31;;;;;;;9.05;2.83;;;13.40;85.60;;;;;;5011431;28;20087;-46
2022/11/07 12:02:51;;;;;;;14.38;3.33;;;13.30;85.80;;;;;;5009551;28;20050;-53
2022/11/07 12:05:35;;;;;;;9.02;2.67;;;13.40;85.80;;;;;;4937083;29;20051;-48
2022/11/07 12:08:37;;;;;;;11.95;3.90;;;13.40;85.80;;;;;;5006918;28;20554;-49
2022/11/07 12:11:28;;;;;;;12.10;3.40;;;13.50;85.90;;;;;;5013681;28;20030;-46
2022/11/07 12:14:38;;;;;;;11.15;4.60;;;13.50;85.70;;;;;;5012816;28;20033;-49
2022/11/07 12:17:13;;;;;;;8.63;3.10;;;13.40;85.40;;;;;;5009218;28;20088;-46
2022/11/07 12:19:56;;;;;;;13.88;3.92;;;13.40;85.70;;;;;;5004031;28;20364;-46
2022/11/07 12:23:00;;;;;;;10.38;3.30;;;13.40;85.90;;;;;;5002690;28;20038;-48
2022/11/07 12:25:44;;;;;;;10.65;3.60;;;13.40;85.90;;;;;;5009138;28;20032;-46
2022/11/07 12:28:47;;;;;;;10.18;2.95;;;13.50;85.80;;;;;;4993898;28;20034;-45
2022/11/07 12:31:18;;;;;;;17.23;3.50;;;13.50;85.90;;;;;;4985396;28;20463;-47
2022/11/07 12:34:18;;;;;;;10.15;3.05;;;13.50;85.70;;;;;;5010095;28;20061;-49
2022/11/07 12:37:23;;;;;;;10.05;3.60;;;13.60;85.60;;;;;;4982974;28;20046;-52
2022/11/07 12:40:19;;;;;;;11.40;3.33;;;13.60;85.90;;;;;;5013765;28;20029;-50
2022/11/07 12:43:11;;;;;;;9.35;3.15;;;13.70;85.80;;;;;;5010894;28;20470;-49
2022/11/07 12:46:06;;;;;;;12.35;3.50;;;13.70;85.20;;;;;;5010814;28;20499;-46
2022/11/07 12:48:38;;;;;;;13.82;3.78;;;13.70;85.30;;;;;;5005774;28;20029;-49
2022/11/07 12:51:30;;;;;;;10.55;3.40;;;13.70;85.30;;;;;;5011430;28;20088;-46
2022/11/07 12:54:18;;;;;;;13.02;3.50;;;13.80;85.20;;;;;;5001308;28;20073;-46
2022/11/07 12:56:47;;;;;;;10.65;2.97;;;13.80;85.40;;;;;;4996611;28;20014;-49
2022/11/07 12:59:25;;;;;;;11.45;3.78;;;13.80;85.50;;;;;;4993203;28;20042;-46
2022/11/07 13:02:08;;;;;;;9.30;3.83;;;13.80;85.40;;;;;;4979664;28;20134;-47
2022/11/07 13:04:59;;;;;;;10.77;3.50;;;13.70;85.50;;;;;;5007578;28;20030;-46
2022/11/07 13:07:41;;;;;;;12.60;3.92;;;13.80;85.50;;;;;;4993767;28;20053;-46
2022/11/07 13:10:24;;;;;;;15.00;4.25;;;13.70;85.70;;;;;;4993385;28;20045;-46
2022/11/07 13:13:06;;;;;;;11.90;3.42;;;13.80;85.90;;;;;;4993313;28;20042;-48
2022/11/07 13:15:35;;;;;;;13.02;3.97;;;13.80;85.50;;;;;;4992493;28;20037;-46
2022/11/07 13:18:01;;;;;;;14.45;4.10;;;13.80;85.70;;;;;;5010628;28;20099;-48
2022/11/07 13:20:32;;;;;;;8.68;3.38;;;13.80;85.60;;;;;;5009518;28;20073;-47
2022/11/07 13:23:13;;;;;;;11.32;3.33;;;13.80;85.50;;;;;;4993206;28;20440;-46